LEBBLEVT

Guest
Details From LEBB - Bilbao
To LEVT - Vitoria
Flight Number -
Tags Generated
Created
Modified
Stats Distance 27 nm / 51 km
Max Altitude 0 ft / 0 m
Waypoints 2
Social Downloads 1
Likes 0
Share VATSIM

Download

Looking for another format? Having issues loading an existing format? Contact us
Advertisement - Login to hide

Notes

Generated

Route

LEBB LEVT

ID Type Via Altitude Latitude Longitude Leg Dist Tot Dist Heading (true) Name
O LEBB APT - 0 ft / 0 m 43.30335˚ -2.93703˚ - 0 nm - -
O LEVT APT - 0 ft / 0 m 42.87009˚ -2.73703˚ 27 nm 27 nm 161° / 161° -

Altitude Profile

Advertisement - Login to hide

LEBB

Details ICAO LEBB (BIO)
Name Bilbao
Region Spain
Timezone Europe/Madrid (UTC+1.0)
Stats Elevation 137 ft / 42 m (AMSL)
Location 43.301692° -2.917664°
Runways 2
Magnetic Variation 0.630° W

METAR

LEBB 120100Z AUTO 07007KT 050V130 9999 -RA FEW039/// SCT068/// 06/04 Q1008

Decode

TAF

TAF LEBB 112300Z 1200/1224 33012KT 9999 SCT025 SCT045 TX11/1212Z TN04/1206Z TEMPO 1200/1202 29015G25KT BECMG 1204/1207 22002KT TEMPO 1200/1212 RA BKN010 PROB40 TEMPO 1200/1209 3000 SHRA SCT030TCU PROB30 TEMPO 1200/1209 3000 TSRAGR BKN014 BKN025CB

Decode

Departure Runways

ID Width Length Bearing (true) Bearing (mag) Surface Threshold Offset Overrun Length
10 148 ft / 45 m 6,569 ft / 2,002 m 96.66° 97.29° Asphalt 20 ft / 6 m 184 ft / 56 m
12 148 ft / 45 m 8,539 ft / 2,603 m 116.73° 117.36° Asphalt 20 ft / 6 m 197 ft / 60 m
28 148 ft / 45 m 6,569 ft / 2,002 m 276.68° 277.31° Asphalt 23 ft / 7 m 0 ft / 0 m
30 148 ft / 45 m 8,539 ft / 2,603 m 296.75° 297.38° Asphalt 1,509 ft / 460 m 171 ft / 52 m

LEVT

Details ICAO LEVT (VIT)
Name Vitoria
Region Spain
Timezone Europe/Madrid (UTC+1.0)
Stats Elevation 1,682 ft / 513 m (AMSL)
Location 42.882847° -2.724460°
Runways 1
Magnetic Variation 0.549° W

METAR

LEVT 120100Z 25006KT 220V280 9999 FEW014 SCT025 BKN035 02/01 Q1008

Decode

TAF

TAF LEVT 112300Z 1200/1224 22009KT 9999 SCT015 BKN030 TX08/1213Z TN00/1206Z PROB40 TEMPO 1200/1205 3000 SHRA SCT030TCU PROB30 TEMPO 1200/1205 3000 TSRAGR BKN014 BKN025CB

Decode

Destination Runways

ID Width Length Bearing (true) Bearing (mag) Surface Threshold Offset Overrun Length
04 148 ft / 45 m 11,481 ft / 3,500 m 35.83° 36.38° Asphalt 0 ft / 0 m 164 ft / 50 m
22 148 ft / 45 m 11,481 ft / 3,500 m 215.85° 216.40° Asphalt 0 ft / 0 m 164 ft / 50 m

Approach Navaids

Runway Type Ident Frequency Range Bearing (true) Bearing (mag) Slope Elevation
04 Localiser VTO 108.90 MHz 18 nm / 33 km 35.85° 36.40° - 1,682 ft / 513 m (AMSL)
04 Glidescope VTO 108.90 MHz 10 nm / 19 km 35.84° 36.39° 3.00° 1,682 ft / 513 m (AMSL)
04 DME VTO 108.90 MHz 18 nm / 33 km - - - 1,681 ft / 512 m (AMSL)

Popular Alternatives